createdAt,value
2023-04-08T00:01:19.341Z,16.23
2023-04-08T00:03:46.520Z,16.38
2023-04-08T00:06:13.714Z,15.25
2023-04-08T00:08:40.741Z,15.05
2023-04-08T00:11:07.848Z,17.00
2023-04-08T00:13:34.874Z,15.27
2023-04-08T00:16:03.187Z,15.02
2023-04-08T00:18:30.265Z,13.30
2023-04-08T00:20:57.384Z,15.50
2023-04-08T00:23:24.444Z,16.70
2023-04-08T00:25:51.607Z,14.18
2023-04-08T00:28:18.687Z,15.80
2023-04-08T00:30:45.844Z,16.67
2023-04-08T00:33:13.351Z,15.43
2023-04-08T00:35:40.571Z,15.05
2023-04-08T00:38:08.544Z,14.65
2023-04-08T00:40:35.851Z,17.25
2023-04-08T00:43:02.905Z,16.02
2023-04-08T00:45:30.518Z,18.05
2023-04-08T00:47:57.592Z,15.23
2023-04-08T00:50:24.907Z,15.80
2023-04-08T00:52:52.058Z,16.98
2023-04-08T00:55:19.051Z,15.93
2023-04-08T00:57:47.194Z,14.60
2023-04-08T01:00:15.652Z,14.90
2023-04-08T01:02:52.802Z,16.20
2023-04-08T01:05:34.066Z,15.02
2023-04-08T01:08:05.224Z,14.55
2023-04-08T01:10:35.017Z,14.43
2023-04-08T01:13:06.032Z,15.23
2023-04-08T01:15:35.758Z,15.77
2023-04-08T01:18:07.248Z,14.38
2023-04-08T01:20:35.196Z,14.95
2023-04-08T01:23:25.104Z,11.80
2023-04-08T01:25:54.204Z,14.43
2023-04-08T01:28:24.205Z,11.35
2023-04-08T01:30:52.155Z,11.55
2023-04-08T01:33:20.531Z,14.60
2023-04-08T01:35:48.141Z,16.08
2023-04-08T01:38:18.225Z,12.73
2023-04-08T01:40:47.412Z,11.35
2023-04-08T01:43:17.326Z,11.98
2023-04-08T01:45:46.880Z,12.45
2023-04-08T01:48:15.873Z,10.40
2023-04-08T01:50:44.630Z,11.40
2023-04-08T01:53:12.771Z,10.65
2023-04-08T01:55:42.479Z,12.93
2023-04-08T01:58:13.496Z,12.20
2023-04-08T02:00:43.581Z,11.88
2023-04-08T02:03:12.739Z,13.00
2023-04-08T02:05:40.614Z,12.70
2023-04-08T02:08:07.627Z,12.52
2023-04-08T02:10:34.711Z,14.30
2023-04-08T02:13:03.433Z,12.85
2023-04-08T02:15:36.092Z,14.07
2023-04-08T02:18:12.339Z,13.85
2023-04-08T02:20:47.180Z,13.40
2023-04-08T02:23:19.508Z,14.40
2023-04-08T02:25:48.561Z,13.82
2023-04-08T02:28:18.017Z,14.63
2023-04-08T02:30:53.278Z,13.35
2023-04-08T02:33:22.196Z,15.43
2023-04-08T02:35:52.079Z,14.48
2023-04-08T02:38:19.826Z,15.13
2023-04-08T02:40:49.876Z,18.63
2023-04-08T02:43:17.041Z,16.83
2023-04-08T02:45:45.531Z,15.88
2023-04-08T02:48:12.590Z,15.00
2023-04-08T02:50:40.873Z,16.23
2023-04-08T02:53:08.847Z,17.35
2023-04-08T02:55:36.053Z,15.98
2023-04-08T02:58:03.138Z,18.27
2023-04-08T03:00:31.663Z,16.20
2023-04-08T03:02:59.106Z,16.88
2023-04-08T03:05:26.835Z,17.08
2023-04-08T03:07:53.958Z,17.90
2023-04-08T03:10:21.012Z,18.60
2023-04-08T03:12:48.042Z,19.17
2023-04-08T03:15:19.735Z,17.55
2023-04-08T03:17:46.825Z,17.02
2023-04-08T03:20:14.543Z,16.90
2023-04-08T03:22:41.576Z,17.90
2023-04-08T03:25:09.329Z,17.73
2023-04-08T03:27:36.457Z,17.40
2023-04-08T03:30:03.795Z,18.00
2023-04-08T03:32:30.963Z,19.08
2023-04-08T03:34:58.024Z,17.38
2023-04-08T03:37:25.411Z,18.83
2023-04-08T03:39:53.268Z,17.67
2023-04-08T03:42:20.432Z,17.45
2023-04-08T03:44:47.549Z,15.85
2023-04-08T03:47:14.688Z,15.63
2023-04-08T03:49:42.066Z,17.13
2023-04-08T03:52:09.292Z,14.57
2023-04-08T03:54:36.388Z,17.67
2023-04-08T03:57:03.516Z,13.45
2023-04-08T03:59:30.653Z,14.75
2023-04-08T04:01:57.845Z,11.35
2023-04-08T04:04:25.467Z,10.88
2023-04-08T04:06:52.659Z,11.20
2023-04-08T04:09:19.752Z,10.25
2023-04-08T04:11:46.890Z,9.50
2023-04-08T04:14:14.054Z,9.38
2023-04-08T04:16:41.226Z,9.55
2023-04-08T04:19:08.607Z,9.55
2023-04-08T04:21:35.705Z,9.25
2023-04-08T04:24:02.716Z,9.30
2023-04-08T04:26:29.807Z,8.73
2023-04-08T04:28:56.900Z,9.55
2023-04-08T04:31:27.956Z,10.07
2023-04-08T04:33:55.265Z,9.48
2023-04-08T04:36:22.747Z,9.80
2023-04-08T04:38:50.951Z,9.85
2023-04-08T04:41:18.219Z,10.98
2023-04-08T04:43:45.703Z,9.93
2023-04-08T04:46:13.250Z,9.77
2023-04-08T04:48:40.631Z,10.90
2023-04-08T04:51:07.767Z,9.80
2023-04-08T04:53:34.962Z,11.63
2023-04-08T04:56:02.339Z,10.73
2023-04-08T04:58:29.883Z,9.98
2023-04-08T05:00:57.178Z,11.40
2023-04-08T05:03:24.462Z,11.48
2023-04-08T05:05:55.060Z,11.95
2023-04-08T05:08:22.741Z,11.13
2023-04-08T05:10:55.705Z,10.43
2023-04-08T05:13:22.835Z,10.60
2023-04-08T05:15:49.980Z,10.35
2023-04-08T05:18:17.176Z,10.57
2023-04-08T05:20:44.337Z,10.13
2023-04-08T05:23:13.903Z,10.43
2023-04-08T05:25:41.066Z,9.65
2023-04-08T05:28:08.053Z,10.05
2023-04-08T05:30:35.560Z,10.35
2023-04-08T05:33:02.683Z,10.48
2023-04-08T05:35:29.834Z,11.15
2023-04-08T05:37:57.022Z,11.15
2023-04-08T05:40:24.336Z,12.15
2023-04-08T05:42:51.500Z,12.45
2023-04-08T05:45:18.577Z,10.85
2023-04-08T05:47:45.689Z,12.82
2023-04-08T05:50:13.378Z,13.52
2023-04-08T05:52:44.769Z,12.25
2023-04-08T05:55:16.874Z,12.80
2023-04-08T05:57:44.136Z,12.35
2023-04-08T06:00:11.487Z,11.82
2023-04-08T06:02:39.020Z,12.63
2023-04-08T06:05:06.899Z,11.85
2023-04-08T06:07:34.383Z,12.85
2023-04-08T06:10:02.026Z,12.02
2023-04-08T06:12:29.529Z,13.05
2023-04-08T06:14:56.696Z,12.35
2023-04-08T06:17:23.967Z,13.75
2023-04-08T06:19:51.179Z,12.27
2023-04-08T06:22:18.228Z,11.95
2023-04-08T06:24:48.484Z,12.35
2023-04-08T06:27:15.955Z,11.75
2023-04-08T06:29:43.377Z,11.52
2023-04-08T06:32:10.833Z,13.50
2023-04-08T06:34:38.330Z,12.95
2023-04-08T06:37:06.321Z,12.07
2023-04-08T06:39:34.124Z,12.85
2023-04-08T06:42:01.624Z,13.10
2023-04-08T06:44:28.786Z,12.15
2023-04-08T06:46:56.077Z,10.60
2023-04-08T06:49:23.510Z,11.98
2023-04-08T06:51:50.922Z,10.50
2023-04-08T06:54:18.254Z,10.55
2023-04-08T06:56:45.395Z,9.52
2023-04-08T06:59:13.029Z,10.27
2023-04-08T07:01:40.405Z,10.02
2023-04-08T07:04:07.515Z,11.30
2023-04-08T07:06:34.725Z,9.23
2023-04-08T07:09:01.792Z,9.07
2023-04-08T07:11:29.197Z,9.63
2023-04-08T07:13:56.318Z,9.10
2023-04-08T07:16:23.450Z,9.00
2023-04-08T07:18:51.831Z,8.77
2023-04-08T07:21:19.194Z,9.15
2023-04-08T07:23:46.293Z,9.80
2023-04-08T07:26:14.328Z,9.25
2023-04-08T07:28:42.164Z,9.63
2023-04-08T07:31:14.150Z,8.57
2023-04-08T07:33:42.187Z,9.10
2023-04-08T07:36:34.668Z,8.68
2023-04-08T07:39:02.268Z,9.07
2023-04-08T07:41:31.973Z,9.48
2023-04-08T07:43:59.241Z,9.25
2023-04-08T07:46:26.490Z,8.90
2023-04-08T07:48:53.644Z,8.75
2023-04-08T07:51:21.068Z,7.50
2023-04-08T07:53:48.678Z,8.43
2023-04-08T07:56:16.269Z,8.10
2023-04-08T07:58:44.724Z,7.97
2023-04-08T08:01:19.844Z,7.88
2023-04-08T08:03:49.014Z,8.38
2023-04-08T08:06:16.791Z,7.50
2023-04-08T08:08:44.342Z,7.07
2023-04-08T08:11:11.411Z,8.05
2023-04-08T08:13:38.493Z,7.43
2023-04-08T08:16:09.007Z,8.32
2023-04-08T08:18:36.885Z,7.60
2023-04-08T08:21:04.122Z,7.25
2023-04-08T08:23:31.555Z,8.02
2023-04-08T08:26:12.750Z,7.60
2023-04-08T08:28:40.335Z,7.57
2023-04-08T08:31:07.811Z,7.90
2023-04-08T08:33:35.510Z,7.82
2023-04-08T08:36:04.697Z,7.88
2023-04-08T08:38:31.882Z,7.45
2023-04-08T08:40:59.877Z,8.10
2023-04-08T08:43:27.671Z,8.45
2023-04-08T08:45:55.158Z,8.55
2023-04-08T08:48:22.670Z,7.65
2023-04-08T08:50:49.896Z,7.78
2023-04-08T08:53:17.246Z,7.97
2023-04-08T08:56:13.675Z,8.70
2023-04-08T08:58:35.322Z,8.40
2023-04-08T09:01:02.457Z,8.27
2023-04-08T09:03:29.831Z,8.48
2023-04-08T09:05:58.804Z,8.68
2023-04-08T09:08:31.181Z,8.70
2023-04-08T09:11:14.811Z,8.70
2023-04-08T09:13:43.797Z,8.30
2023-04-08T09:16:19.845Z,8.25
2023-04-08T09:18:49.413Z,7.90
2023-04-08T09:21:18.433Z,7.78
2023-04-08T09:23:46.961Z,8.10
2023-04-08T09:26:19.724Z,7.93
2023-04-08T09:29:25.107Z,7.93
2023-04-08T09:32:00.654Z,8.43
2023-04-08T09:34:29.524Z,8.07
2023-04-08T09:36:56.930Z,8.98
2023-04-08T09:39:24.333Z,8.30
2023-04-08T09:41:53.355Z,7.45
2023-04-08T09:44:22.060Z,7.57
2023-04-08T09:46:49.231Z,6.78
2023-04-08T09:49:27.221Z,7.45
2023-04-08T09:52:09.003Z,7.32
2023-04-08T09:54:49.123Z,7.88
2023-04-08T09:57:22.830Z,8.43
2023-04-08T09:59:57.954Z,7.97
2023-04-08T10:02:37.156Z,7.47
2023-04-08T10:05:08.304Z,8.45
2023-04-08T10:07:36.136Z,7.88
2023-04-08T10:10:03.897Z,7.22
2023-04-08T10:12:31.334Z,7.50
2023-04-08T10:15:24.941Z,8.05
2023-04-08T10:17:55.768Z,7.53
2023-04-08T10:20:34.838Z,8.00
2023-04-08T10:23:02.123Z,8.48
2023-04-08T10:25:36.982Z,10.73
2023-04-08T10:28:18.912Z,8.18
2023-04-08T10:30:46.913Z,8.43
2023-04-08T10:33:19.128Z,7.60
2023-04-08T10:35:55.665Z,7.70
2023-04-08T10:38:23.180Z,7.97
2023-04-08T10:40:51.269Z,8.10
2023-04-08T10:43:18.360Z,7.70
2023-04-08T10:45:51.394Z,7.45
2023-04-08T10:48:25.302Z,7.60
2023-04-08T10:53:35.455Z,6.78
2023-04-08T10:56:15.412Z,6.90
2023-04-08T10:58:54.303Z,7.55
2023-04-08T11:01:21.657Z,6.22
2023-04-08T11:03:49.330Z,7.35
2023-04-08T11:06:17.999Z,6.53
2023-04-08T11:08:46.819Z,7.15
2023-04-08T11:11:14.815Z,5.90
2023-04-08T11:13:52.584Z,5.93
2023-04-08T11:16:23.076Z,6.63
2023-04-08T11:18:51.132Z,6.90
2023-04-08T11:21:18.457Z,7.03
2023-04-08T11:23:45.618Z,7.38
2023-04-08T11:26:15.017Z,7.10
2023-04-08T11:28:42.212Z,6.22
2023-04-08T11:31:09.562Z,6.53
2023-04-08T11:33:37.049Z,5.63
2023-04-08T11:36:04.863Z,6.78
2023-04-08T11:38:32.094Z,6.45
2023-04-08T11:41:00.341Z,7.68
2023-04-08T11:43:28.454Z,6.60
2023-04-08T11:45:55.883Z,6.18
2023-04-08T11:48:23.776Z,6.05
2023-04-08T11:51:04.788Z,6.60
2023-04-08T11:53:31.901Z,6.70
2023-04-08T11:56:15.974Z,5.68
2023-04-08T12:01:11.195Z,6.53
2023-04-08T12:03:38.405Z,6.35
2023-04-08T12:06:07.262Z,5.90
2023-04-08T12:08:34.458Z,5.38
2023-04-08T12:11:16.537Z,5.10
2023-04-08T12:13:47.999Z,4.90
2023-04-08T12:16:15.511Z,4.57
2023-04-08T12:18:43.985Z,4.43
2023-04-08T12:21:11.151Z,5.07
2023-04-08T12:23:38.276Z,3.47
2023-04-08T12:26:05.569Z,3.95
2023-04-08T12:28:32.800Z,5.25
2023-04-08T12:31:02.513Z,5.72
2023-04-08T12:33:30.548Z,5.00
2023-04-08T12:35:59.195Z,5.80
2023-04-08T12:38:29.445Z,5.53
2023-04-08T12:40:56.573Z,5.43
2023-04-08T12:43:23.894Z,5.75
2023-04-08T12:45:51.688Z,4.90
2023-04-08T12:48:19.103Z,5.68
2023-04-08T12:50:46.535Z,5.75
2023-04-08T12:53:14.513Z,6.45
2023-04-08T12:55:43.194Z,5.70
2023-04-08T12:58:11.573Z,5.63
2023-04-08T13:00:38.960Z,5.30
2023-04-08T13:03:06.345Z,5.85
2023-04-08T13:08:07.261Z,5.45
2023-04-08T13:10:34.316Z,5.28
2023-04-08T13:13:01.405Z,5.93
2023-04-08T13:15:28.612Z,6.95
2023-04-08T13:17:56.120Z,7.10
2023-04-08T13:20:25.704Z,6.07
2023-04-08T13:22:53.074Z,5.40
2023-04-08T13:25:20.415Z,5.55
2023-04-08T13:27:48.139Z,5.30
2023-04-08T13:30:15.545Z,4.00
2023-04-08T13:32:43.374Z,4.35
2023-04-08T13:35:10.612Z,5.43
2023-04-08T13:37:37.842Z,4.50
2023-04-08T13:40:06.162Z,3.80
2023-04-08T13:42:33.271Z,4.38
2023-04-08T13:45:00.547Z,4.78
2023-04-08T13:47:28.052Z,4.28
2023-04-08T13:49:55.191Z,4.32
2023-04-08T13:52:22.727Z,5.25
2023-04-08T13:54:49.768Z,4.82
2023-04-08T13:57:16.998Z,4.65
2023-04-08T13:59:44.900Z,4.95
2023-04-08T14:02:13.252Z,6.43
2023-04-08T14:04:40.517Z,5.93
2023-04-08T14:07:07.688Z,5.95
2023-04-08T14:09:35.806Z,6.07
2023-04-08T14:12:03.038Z,5.60
2023-04-08T14:14:30.278Z,6.10
2023-04-08T14:16:57.714Z,5.07
2023-04-08T14:19:24.946Z,6.05
2023-04-08T14:21:52.203Z,5.43
2023-04-08T14:24:19.589Z,5.38
2023-04-08T14:26:47.006Z,6.10
2023-04-08T14:29:17.058Z,5.35
2023-04-08T14:31:44.512Z,6.43
2023-04-08T14:34:12.003Z,5.88
2023-04-08T14:36:39.057Z,5.93
2023-04-08T14:39:06.427Z,6.43
2023-04-08T14:41:33.572Z,6.03
2023-04-08T14:44:00.815Z,5.95
2023-04-08T14:46:29.025Z,6.22
2023-04-08T14:48:56.668Z,6.78
2023-04-08T14:51:23.711Z,7.15
2023-04-08T14:53:51.046Z,6.00
2023-04-08T14:56:18.237Z,7.13
2023-04-08T14:58:45.558Z,6.55
2023-04-08T15:01:13.308Z,7.43
2023-04-08T15:03:40.528Z,6.57
2023-04-08T15:06:07.907Z,6.93
2023-04-08T15:08:35.149Z,7.72
2023-04-08T15:11:02.285Z,7.20
2023-04-08T15:13:29.380Z,6.22
2023-04-08T15:15:56.691Z,6.15
2023-04-08T15:18:23.932Z,5.80
2023-04-08T15:20:51.563Z,5.43
2023-04-08T15:23:18.596Z,6.97
2023-04-08T15:25:46.327Z,6.45
2023-04-08T15:28:14.133Z,5.32
2023-04-08T15:30:41.281Z,6.32
2023-04-08T15:33:08.413Z,6.03
2023-04-08T15:35:38.374Z,6.60
2023-04-08T15:38:05.551Z,5.65
2023-04-08T15:40:35.455Z,6.32
2023-04-08T15:43:03.841Z,6.95
2023-04-08T15:45:31.621Z,8.10
2023-04-08T15:47:59.594Z,6.85
2023-04-08T15:50:29.141Z,7.95
2023-04-08T15:52:56.939Z,7.88
2023-04-08T15:55:23.969Z,7.97
2023-04-08T15:57:54.023Z,9.25
2023-04-08T16:00:21.622Z,7.97
2023-04-08T16:02:51.408Z,8.35
2023-04-08T16:05:18.659Z,8.52
2023-04-08T16:07:46.978Z,8.88
2023-04-08T16:10:14.756Z,9.10
2023-04-08T16:12:42.298Z,9.65
2023-04-08T16:15:10.025Z,10.30
2023-04-08T16:17:37.326Z,10.38
2023-04-08T16:20:05.174Z,10.43
2023-04-08T16:22:32.267Z,10.95
2023-04-08T16:24:59.347Z,11.38
2023-04-08T16:27:26.556Z,11.43
2023-04-08T16:29:54.165Z,12.73
2023-04-08T16:32:21.606Z,10.65
2023-04-08T16:34:48.655Z,11.65
2023-04-08T16:37:15.703Z,11.80
2023-04-08T16:39:43.167Z,10.93
2023-04-08T16:42:10.220Z,14.18
2023-04-08T16:44:37.525Z,11.95
2023-04-08T16:47:04.622Z,11.70
2023-04-08T16:49:31.716Z,12.25
2023-04-08T16:51:58.799Z,12.10
2023-04-08T16:54:25.975Z,11.50
2023-04-08T16:56:53.129Z,11.88
2023-04-08T16:59:20.789Z,11.63
2023-04-08T17:01:48.422Z,11.38
2023-04-08T17:04:15.498Z,12.85
2023-04-08T17:06:42.988Z,12.35
2023-04-08T17:09:10.551Z,12.05
2023-04-08T17:11:37.618Z,13.13
2023-04-08T17:14:04.802Z,11.10
2023-04-08T17:16:31.922Z,10.75
2023-04-08T17:18:59.028Z,12.35
2023-04-08T17:21:26.852Z,12.20
2023-04-08T17:23:54.875Z,13.75
2023-04-08T17:26:23.472Z,14.25
2023-04-08T17:28:50.534Z,12.75
2023-04-08T17:31:18.177Z,13.38
2023-04-08T17:33:45.299Z,14.35
2023-04-08T17:36:12.459Z,14.15
2023-04-08T17:38:40.106Z,12.85
2023-04-08T17:41:08.063Z,12.32
2023-04-08T17:43:35.616Z,14.15
2023-04-08T17:46:02.787Z,13.82
2023-04-08T17:48:29.973Z,13.77
2023-04-08T17:51:04.554Z,13.25
2023-04-08T17:53:32.492Z,13.32
2023-04-08T17:56:00.762Z,13.35
2023-04-08T17:58:27.971Z,13.80
2023-04-08T18:00:55.311Z,15.77
2023-04-08T18:03:22.966Z,15.98
2023-04-08T18:05:50.426Z,14.82
2023-04-08T18:08:17.556Z,14.45
2023-04-08T18:10:45.704Z,14.95
2023-04-08T18:13:14.562Z,15.38
2023-04-08T18:15:42.280Z,13.95
2023-04-08T18:18:09.383Z,14.80
2023-04-08T18:20:37.007Z,14.95
2023-04-08T18:23:04.361Z,15.48
2023-04-08T18:25:32.384Z,15.13
2023-04-08T18:27:59.636Z,14.57
2023-04-08T18:30:27.057Z,16.17
2023-04-08T18:32:54.178Z,14.90
2023-04-08T18:35:21.655Z,15.77
2023-04-08T18:37:48.776Z,14.75
2023-04-08T18:40:15.918Z,16.63
2023-04-08T18:42:45.896Z,16.60
2023-04-08T18:45:13.426Z,16.88
2023-04-08T18:47:40.567Z,16.13
2023-04-08T18:50:08.067Z,15.65
2023-04-08T18:52:35.178Z,15.43
2023-04-08T18:55:02.716Z,16.30
2023-04-08T18:57:29.839Z,16.08
2023-04-08T18:59:56.906Z,13.98
2023-04-08T19:02:24.131Z,14.63
2023-04-08T19:04:51.992Z,22.80
2023-04-08T19:07:19.138Z,15.13
2023-04-08T19:09:47.342Z,12.88
2023-04-08T19:12:14.567Z,11.90
2023-04-08T19:14:42.276Z,11.88
2023-04-08T19:17:11.024Z,11.57
2023-04-08T19:19:39.022Z,11.88
2023-04-08T19:22:06.248Z,11.07
2023-04-08T19:24:33.847Z,12.20
2023-04-08T19:27:01.021Z,11.85
2023-04-08T19:29:29.757Z,12.43
2023-04-08T19:31:59.217Z,11.52
2023-04-08T19:34:26.708Z,12.15
2023-04-08T19:36:54.062Z,13.50
2023-04-08T19:39:21.656Z,14.15
2023-04-08T19:41:48.698Z,12.25
2023-04-08T19:44:16.021Z,13.85
2023-04-08T19:46:44.251Z,13.05
2023-04-08T19:49:11.397Z,12.77
2023-04-08T19:51:38.531Z,13.60
2023-04-08T19:54:05.577Z,13.88
2023-04-08T19:56:33.956Z,12.82
2023-04-08T19:59:01.893Z,12.15
2023-04-08T20:01:29.909Z,13.50
2023-04-08T20:03:57.084Z,12.70
2023-04-08T20:06:24.274Z,12.68
2023-04-08T20:08:52.594Z,12.27
2023-04-08T20:11:20.546Z,13.70
2023-04-08T20:13:49.182Z,12.48
2023-04-08T20:16:17.045Z,12.57
2023-04-08T20:18:44.406Z,12.77
2023-04-08T20:21:14.211Z,12.93
2023-04-08T20:23:44.500Z,13.07
2023-04-08T20:26:13.427Z,12.63
2023-04-08T20:28:40.914Z,13.35
2023-04-08T20:31:09.144Z,13.80
2023-04-08T20:33:38.222Z,14.07
2023-04-08T20:36:05.534Z,14.02
2023-04-08T20:38:35.245Z,12.57
2023-04-08T20:41:02.583Z,12.82
2023-04-08T20:43:29.727Z,13.02
2023-04-08T20:45:56.798Z,13.40
2023-04-08T20:48:24.348Z,14.88
2023-04-08T20:50:51.811Z,14.25
2023-04-08T20:53:19.608Z,12.88
2023-04-08T20:55:47.132Z,13.18
2023-04-08T20:58:14.650Z,14.32
2023-04-08T21:00:42.320Z,13.70
2023-04-08T21:03:09.520Z,13.70
2023-04-08T21:05:37.775Z,14.18
2023-04-08T21:08:05.177Z,14.38
2023-04-08T21:10:32.227Z,14.73
2023-04-08T21:13:00.951Z,14.18
2023-04-08T21:15:28.329Z,13.48
2023-04-08T21:17:55.610Z,14.07
2023-04-08T21:20:23.007Z,14.43
2023-04-08T21:22:50.217Z,14.98
2023-04-08T21:25:18.445Z,14.23
2023-04-08T21:27:45.608Z,16.27
2023-04-08T21:30:14.982Z,14.95
2023-04-08T21:32:42.906Z,15.55
2023-04-08T21:35:10.439Z,16.23
2023-04-08T21:37:37.553Z,15.68
2023-04-08T21:40:05.054Z,16.13
2023-04-08T21:42:32.867Z,16.05
2023-04-08T21:44:59.953Z,17.02
2023-04-08T21:47:27.087Z,17.95
2023-04-08T21:49:55.850Z,18.05
2023-04-08T21:52:23.206Z,16.98
2023-04-08T21:54:51.432Z,17.42
2023-04-08T21:57:18.873Z,17.10
2023-04-08T21:59:46.095Z,17.08
2023-04-08T22:02:13.640Z,17.02
2023-04-08T22:04:41.098Z,16.33
2023-04-08T22:07:08.437Z,15.95
2023-04-08T22:09:35.506Z,16.10
2023-04-08T22:12:02.647Z,16.33
2023-04-08T22:14:29.839Z,17.30
2023-04-08T22:16:57.861Z,16.65
2023-04-08T22:19:24.994Z,16.05
2023-04-08T22:21:52.166Z,16.13
2023-04-08T22:24:19.827Z,16.20
2023-04-08T22:26:47.370Z,16.33
2023-04-08T22:29:14.906Z,18.20
2023-04-08T22:31:42.017Z,16.67
2023-04-08T22:34:09.066Z,17.05
2023-04-08T22:36:36.109Z,17.17
2023-04-08T22:39:03.901Z,18.08
2023-04-08T22:41:31.124Z,19.00
2023-04-08T22:43:58.213Z,18.70
2023-04-08T22:46:25.392Z,16.92
2023-04-08T22:48:52.953Z,18.95
2023-04-08T22:51:20.856Z,19.17
2023-04-08T22:53:48.518Z,20.20
2023-04-08T22:56:15.615Z,19.23
2023-04-08T22:58:44.215Z,18.45
2023-04-08T23:01:13.999Z,20.73
2023-04-08T23:03:41.703Z,21.15
2023-04-08T23:06:09.468Z,21.75
2023-04-08T23:08:36.514Z,21.13
2023-04-08T23:11:03.586Z,21.30
2023-04-08T23:13:30.936Z,21.85
2023-04-08T23:15:58.765Z,21.38
2023-04-08T23:18:25.965Z,22.58
2023-04-08T23:20:57.310Z,22.08
2023-04-08T23:23:24.900Z,22.25
2023-04-08T23:25:55.363Z,21.27
2023-04-08T23:28:24.189Z,23.00
2023-04-08T23:30:51.295Z,22.25
2023-04-08T23:33:18.527Z,22.88
2023-04-08T23:35:46.082Z,21.40
2023-04-08T23:38:13.350Z,22.33
2023-04-08T23:40:41.109Z,23.35
2023-04-08T23:43:08.254Z,21.92
2023-04-08T23:45:35.387Z,22.40
2023-04-08T23:48:02.457Z,23.67
2023-04-08T23:50:29.546Z,23.00
2023-04-08T23:52:56.816Z,21.55
2023-04-08T23:55:23.892Z,23.35
2023-04-08T23:57:53.642Z,23.10
